createdAt,value
2018-04-27T00:02:26.975Z,11.25
2018-04-27T00:04:57.349Z,10.25
2018-04-27T00:07:28.062Z,10.75
2018-04-27T00:09:58.418Z,10.25
2018-04-27T00:12:29.001Z,10.00
2018-04-27T00:14:59.825Z,11.75
2018-04-27T00:17:30.192Z,9.75
2018-04-27T00:20:00.547Z,10.00
2018-04-27T00:22:31.256Z,10.75
2018-04-27T00:25:01.525Z,10.00
2018-04-27T00:27:31.630Z,10.25
2018-04-27T00:30:04.084Z,10.00
2018-04-27T00:32:35.718Z,9.50
2018-04-27T00:35:06.254Z,10.75
2018-04-27T00:37:36.602Z,11.00
2018-04-27T00:40:06.819Z,10.25
2018-04-27T00:42:37.601Z,10.00
2018-04-27T00:45:12.701Z,10.00
2018-04-27T00:47:44.355Z,10.00
2018-04-27T00:50:16.355Z,11.75
2018-04-27T00:52:55.793Z,10.50
2018-04-27T00:55:26.442Z,8.75
2018-04-27T00:57:56.603Z,10.00
2018-04-27T01:00:27.542Z,8.75
2018-04-27T01:03:03.135Z,9.75
2018-04-27T01:05:33.306Z,9.25
2018-04-27T01:08:04.883Z,10.00
2018-04-27T01:10:35.796Z,9.00
2018-04-27T01:13:05.991Z,9.00
2018-04-27T01:16:00.159Z,9.00
2018-04-27T01:18:31.077Z,7.00
2018-04-27T01:21:01.254Z,9.00
2018-04-27T01:23:32.173Z,9.25
2018-04-27T01:26:02.423Z,9.50
2018-04-27T01:28:32.602Z,9.25
2018-04-27T01:31:03.621Z,10.50
2018-04-27T01:33:46.673Z,10.00
2018-04-27T01:36:22.152Z,10.50
2018-04-27T01:39:07.687Z,9.00
2018-04-27T01:41:38.313Z,9.75
2018-04-27T01:44:09.035Z,8.50
2018-04-27T01:46:39.424Z,9.75
2018-04-27T01:49:09.686Z,10.00
2018-04-27T01:51:39.833Z,8.75
2018-04-27T01:54:10.450Z,9.00
2018-04-27T01:56:42.159Z,9.00
2018-04-27T01:59:12.474Z,10.00
2018-04-27T02:01:42.911Z,10.00
2018-04-27T02:04:13.458Z,10.00
2018-04-27T02:06:43.582Z,9.00
2018-04-27T02:09:13.677Z,10.00
2018-04-27T02:11:44.892Z,9.00
2018-04-27T02:14:15.140Z,9.00
2018-04-27T02:16:46.842Z,10.00
2018-04-27T02:19:17.373Z,10.00
2018-04-27T02:21:48.021Z,10.50
2018-04-27T02:24:19.159Z,8.50
2018-04-27T02:26:49.473Z,9.00
2018-04-27T02:29:19.751Z,10.25
2018-04-27T02:31:51.687Z,10.75
2018-04-27T02:34:21.990Z,7.50
2018-04-27T02:36:52.267Z,9.25
2018-04-27T02:39:22.779Z,9.25
2018-04-27T02:41:52.916Z,9.25
2018-04-27T02:44:23.168Z,7.00
2018-04-27T02:46:54.477Z,8.50
2018-04-27T02:49:25.834Z,8.00
2018-04-27T02:51:56.356Z,9.50
2018-04-27T02:54:26.660Z,9.50
2018-04-27T02:56:56.962Z,8.50
2018-04-27T02:59:28.817Z,9.00
2018-04-27T03:01:59.653Z,8.00
2018-04-27T03:04:29.675Z,8.50
2018-04-27T03:06:59.760Z,9.50
2018-04-27T03:09:29.915Z,6.25
2018-04-27T03:12:00.364Z,7.00
2018-04-27T03:14:30.585Z,6.50
2018-04-27T03:17:01.147Z,9.00
2018-04-27T03:19:31.620Z,9.00
2018-04-27T03:22:01.963Z,7.50
2018-04-27T03:24:32.299Z,8.00
2018-04-27T03:27:03.014Z,8.50
2018-04-27T03:29:33.129Z,6.75
2018-04-27T03:32:04.761Z,6.75
2018-04-27T03:34:35.963Z,9.00
2018-04-27T03:37:06.365Z,8.00
2018-04-27T03:39:37.349Z,9.00
2018-04-27T03:42:11.523Z,7.00
2018-04-27T03:44:42.595Z,7.00
2018-04-27T03:47:12.991Z,6.00
2018-04-27T03:49:43.188Z,7.00
2018-04-27T03:52:13.685Z,6.50
2018-04-27T03:54:44.869Z,6.75
2018-04-27T03:57:16.315Z,7.00
2018-04-27T03:59:56.358Z,6.00
2018-04-27T04:04:41.632Z,7.00
2018-04-27T04:07:11.866Z,7.75
2018-04-27T04:09:42.876Z,7.75
2018-04-27T04:12:13.457Z,6.00
2018-04-27T04:14:43.715Z,6.75
2018-04-27T04:17:13.914Z,6.50
2018-04-27T04:19:44.543Z,6.50
2018-04-27T04:22:14.668Z,5.50
2018-04-27T04:24:45.486Z,7.00
2018-04-27T04:27:15.808Z,5.50
2018-04-27T04:29:56.487Z,6.00
2018-04-27T04:32:27.697Z,7.75
2018-04-27T04:34:58.276Z,7.75
2018-04-27T04:37:28.758Z,7.50
2018-04-27T04:40:03.378Z,7.00
2018-04-27T04:42:33.761Z,7.00
2018-04-27T04:45:06.090Z,8.25
2018-04-27T04:47:36.605Z,7.00
2018-04-27T04:50:07.204Z,7.00
2018-04-27T04:52:42.600Z,5.50
2018-04-27T04:55:13.341Z,6.50
2018-04-27T04:57:44.505Z,6.00
2018-04-27T05:00:18.541Z,6.75
2018-04-27T05:02:49.940Z,6.25
2018-04-27T05:05:25.546Z,6.00
2018-04-27T05:07:57.338Z,6.00
2018-04-27T05:10:35.463Z,6.00
2018-04-27T05:13:07.262Z,6.00
2018-04-27T05:15:44.346Z,6.00
2018-04-27T05:18:18.483Z,4.00
2018-04-27T05:20:49.429Z,5.50
2018-04-27T05:23:25.874Z,7.00
2018-04-27T05:25:57.593Z,6.50
2018-04-27T05:28:28.006Z,6.25
2018-04-27T05:31:00.234Z,6.00
2018-04-27T05:33:30.702Z,4.00
2018-04-27T05:36:01.103Z,6.25
2018-04-27T05:38:31.708Z,6.00
2018-04-27T05:41:02.035Z,6.00
2018-04-27T05:43:33.053Z,6.50
2018-04-27T05:46:04.182Z,6.25
2018-04-27T05:48:35.524Z,7.00
2018-04-27T05:51:13.117Z,6.75
2018-04-27T05:56:24.293Z,5.75
2018-04-27T05:58:55.426Z,7.00
2018-04-27T06:01:26.607Z,7.00
2018-04-27T06:04:14.398Z,4.25
2018-04-27T06:06:46.228Z,5.00
2018-04-27T06:09:16.853Z,5.00
2018-04-27T06:11:49.538Z,5.00
2018-04-27T06:14:20.466Z,6.75
2018-04-27T06:16:50.742Z,6.75
2018-04-27T06:19:23.201Z,5.00
2018-04-27T06:21:54.888Z,4.75
2018-04-27T06:24:33.087Z,6.00
2018-04-27T06:27:06.385Z,6.00
2018-04-27T06:29:36.887Z,5.00
2018-04-27T06:32:07.633Z,5.75
2018-04-27T06:34:38.045Z,5.00
2018-04-27T06:37:08.613Z,5.50
2018-04-27T06:39:39.881Z,7.75
2018-04-27T06:42:18.051Z,6.00
2018-04-27T06:44:48.964Z,5.75
2018-04-27T06:47:19.829Z,6.50
2018-04-27T06:49:51.156Z,5.25
2018-04-27T06:52:22.923Z,5.00
2018-04-27T06:54:56.302Z,5.75
2018-04-27T06:57:28.671Z,6.00
2018-04-27T07:00:00.351Z,5.00
2018-04-27T07:02:38.186Z,3.00
2018-04-27T07:05:09.472Z,5.00
2018-04-27T07:07:40.556Z,3.00
2018-04-27T07:10:12.105Z,3.00
2018-04-27T07:12:42.777Z,3.50
2018-04-27T07:15:21.119Z,3.50
2018-04-27T07:17:53.237Z,2.50
2018-04-27T07:20:25.734Z,3.00
2018-04-27T07:22:56.293Z,2.00
2018-04-27T07:25:34.744Z,3.00
2018-04-27T07:28:05.113Z,3.00
2018-04-27T07:30:36.180Z,5.00
2018-04-27T07:33:06.595Z,5.00
2018-04-27T07:35:37.266Z,3.50
2018-04-27T07:38:09.646Z,5.00
2018-04-27T07:40:42.066Z,3.00
2018-04-27T07:43:12.859Z,2.50
2018-04-27T07:45:43.955Z,3.00
2018-04-27T07:48:16.930Z,4.50
2018-04-27T07:50:48.382Z,3.00
2018-04-27T07:53:20.755Z,3.25
2018-04-27T07:55:52.542Z,4.75
2018-04-27T07:58:26.502Z,3.00
2018-04-27T08:01:04.577Z,3.00
2018-04-27T08:03:35.680Z,3.00
2018-04-27T08:06:19.342Z,4.75
2018-04-27T08:08:51.839Z,3.75
2018-04-27T08:11:25.581Z,3.00
2018-04-27T08:13:57.123Z,3.00
2018-04-27T08:16:47.077Z,3.00
2018-04-27T08:19:26.154Z,2.75
2018-04-27T08:21:59.047Z,3.00
2018-04-27T08:24:30.198Z,2.25
2018-04-27T08:27:11.570Z,2.00
2018-04-27T08:29:43.086Z,2.00
2018-04-27T08:32:18.335Z,2.00
2018-04-27T08:34:50.515Z,2.25
2018-04-27T08:37:21.362Z,2.25
2018-04-27T08:39:52.738Z,2.75
2018-04-27T08:45:09.668Z,2.00
2018-04-27T08:47:49.867Z,2.25
2018-04-27T08:50:20.978Z,3.00
2018-04-27T08:52:51.393Z,2.00
2018-04-27T08:55:21.977Z,2.75
2018-04-27T08:57:53.776Z,2.50
2018-04-27T09:00:24.849Z,3.00
2018-04-27T09:02:55.404Z,2.00
2018-04-27T09:05:26.061Z,2.25
2018-04-27T09:07:56.695Z,2.50
2018-04-27T09:10:27.120Z,3.00
2018-04-27T09:12:58.253Z,3.00
2018-04-27T09:15:28.782Z,2.75
2018-04-27T09:17:59.722Z,3.00
2018-04-27T09:20:31.574Z,3.00
2018-04-27T09:23:06.974Z,2.75
2018-04-27T09:25:38.808Z,3.00
2018-04-27T09:28:19.234Z,2.25
2018-04-27T09:30:50.112Z,2.00
2018-04-27T09:33:21.556Z,3.00
2018-04-27T09:35:51.597Z,3.75
2018-04-27T09:38:21.825Z,3.00
2018-04-27T09:40:52.210Z,3.25
2018-04-27T09:43:28.525Z,3.00
2018-04-27T09:45:59.369Z,4.50
2018-04-27T09:48:34.739Z,3.50
2018-04-27T09:51:05.761Z,3.75
2018-04-27T09:53:47.025Z,3.75
2018-04-27T09:56:20.065Z,4.25
2018-04-27T09:58:50.690Z,3.00
2018-04-27T10:01:22.189Z,3.75
2018-04-27T10:06:33.617Z,5.00
2018-04-27T10:11:45.051Z,4.50
2018-04-27T10:14:22.521Z,4.00
2018-04-27T10:16:54.146Z,4.25
2018-04-27T10:19:41.478Z,4.00
2018-04-27T10:22:52.161Z,2.50
2018-04-27T10:25:30.385Z,2.00
2018-04-27T10:28:02.049Z,2.75
2018-04-27T10:30:34.279Z,5.25
2018-04-27T10:33:05.047Z,2.00
2018-04-27T10:35:36.242Z,3.00
2018-04-27T10:38:06.876Z,2.75
2018-04-27T10:40:37.968Z,3.50
2018-04-27T10:43:08.749Z,3.00
2018-04-27T10:45:40.840Z,3.00
2018-04-27T10:48:11.688Z,2.00
2018-04-27T10:50:47.912Z,2.00
2018-04-27T10:53:18.531Z,2.00
2018-04-27T10:55:55.148Z,2.00
2018-04-27T10:58:27.121Z,2.50
2018-04-27T11:00:58.951Z,3.50
2018-04-27T11:03:29.640Z,1.00
2018-04-27T11:06:00.604Z,1.75
2018-04-27T11:08:30.918Z,2.25
2018-04-27T11:11:02.277Z,2.00
2018-04-27T11:13:32.529Z,2.00
2018-04-27T11:16:03.325Z,2.25
2018-04-27T11:18:33.622Z,2.00
2018-04-27T11:21:03.846Z,2.75
2018-04-27T11:23:39.461Z,2.00
2018-04-27T11:26:22.869Z,2.25
2018-04-27T11:29:04.875Z,2.75
2018-04-27T11:31:50.877Z,2.25
2018-04-27T11:34:25.714Z,2.00
2018-04-27T11:36:57.624Z,3.00
2018-04-27T11:39:28.780Z,3.00
2018-04-27T11:42:07.754Z,3.25
2018-04-27T11:44:38.221Z,2.50
2018-04-27T11:47:09.677Z,2.00
2018-04-27T11:49:42.088Z,2.00
2018-04-27T11:52:13.394Z,3.00
2018-04-27T11:54:45.265Z,2.50
2018-04-27T11:57:21.576Z,3.00
2018-04-27T12:02:18.819Z,2.00
2018-04-27T12:04:50.348Z,2.00
2018-04-27T12:07:24.770Z,2.00
2018-04-27T12:09:59.524Z,2.00
2018-04-27T12:12:33.069Z,2.00
2018-04-27T12:15:16.310Z,2.00
2018-04-27T12:17:49.590Z,2.00
2018-04-27T12:20:22.839Z,2.50
2018-04-27T12:22:53.934Z,2.00
2018-04-27T12:25:28.273Z,2.50
2018-04-27T12:28:00.626Z,2.25
2018-04-27T12:30:33.160Z,2.00
2018-04-27T12:33:03.658Z,2.50
2018-04-27T12:35:36.626Z,3.00
2018-04-27T12:38:07.267Z,2.25
2018-04-27T12:40:38.310Z,2.75
2018-04-27T12:43:09.598Z,2.00
2018-04-27T12:45:42.309Z,2.00
2018-04-27T12:48:13.102Z,2.00
2018-04-27T12:50:46.954Z,3.50
2018-04-27T12:53:18.234Z,3.00
2018-04-27T12:55:48.834Z,3.00
2018-04-27T12:58:19.741Z,3.50
2018-04-27T13:00:50.817Z,3.00
2018-04-27T13:03:23.497Z,1.50
2018-04-27T13:05:55.376Z,2.00
2018-04-27T13:08:33.441Z,1.50
2018-04-27T13:11:05.452Z,1.50
2018-04-27T13:13:37.423Z,1.50
2018-04-27T13:16:11.387Z,3.25
2018-04-27T13:18:42.855Z,3.00
2018-04-27T13:21:20.345Z,3.00
2018-04-27T13:23:55.845Z,3.25
2018-04-27T13:26:26.145Z,2.75
2018-04-27T13:28:56.917Z,3.00
2018-04-27T13:31:28.701Z,2.75
2018-04-27T13:34:06.370Z,2.50
2018-04-27T13:36:36.673Z,2.75
2018-04-27T13:39:07.196Z,3.50
2018-04-27T13:41:37.453Z,2.75
2018-04-27T13:44:07.699Z,4.75
2018-04-27T13:46:39.057Z,2.75
2018-04-27T13:49:09.671Z,2.75
2018-04-27T13:51:40.126Z,2.75
2018-04-27T13:54:10.792Z,2.00
2018-04-27T13:56:41.468Z,2.00
2018-04-27T13:59:11.894Z,2.00
2018-04-27T14:01:42.647Z,1.50
2018-04-27T14:04:13.089Z,2.75
2018-04-27T14:06:44.133Z,2.75
2018-04-27T14:11:41.060Z,3.00
2018-04-27T14:14:12.328Z,1.50
2018-04-27T14:16:44.321Z,2.75
2018-04-27T14:19:16.340Z,2.75
2018-04-27T14:21:47.460Z,2.50
2018-04-27T14:24:35.156Z,3.00
2018-04-27T14:27:06.562Z,3.25
2018-04-27T14:29:37.617Z,2.75
2018-04-27T14:34:39.675Z,1.75
2018-04-27T14:37:11.727Z,2.25
2018-04-27T14:39:43.830Z,2.25
2018-04-27T14:42:14.198Z,2.25
2018-04-27T14:44:52.687Z,2.75
2018-04-27T14:47:29.667Z,3.00
2018-04-27T14:50:00.640Z,3.00
2018-04-27T14:52:32.565Z,2.00
2018-04-27T14:55:03.371Z,3.00
2018-04-27T14:57:33.877Z,2.75
2018-04-27T15:00:08.391Z,3.50
2018-04-27T15:02:38.851Z,2.75
2018-04-27T15:05:10.668Z,2.75
2018-04-27T15:07:41.128Z,2.00
2018-04-27T15:10:11.831Z,2.50
2018-04-27T15:12:42.424Z,1.75
2018-04-27T15:15:18.211Z,1.75
2018-04-27T15:17:55.251Z,2.25
2018-04-27T15:20:26.138Z,3.00
2018-04-27T15:22:56.698Z,2.25
2018-04-27T15:25:28.063Z,3.00
2018-04-27T15:28:03.281Z,3.00
2018-04-27T15:30:45.784Z,2.75
2018-04-27T15:33:19.509Z,2.00
2018-04-27T15:35:51.511Z,2.00
2018-04-27T15:38:21.947Z,3.00
2018-04-27T15:40:53.185Z,3.50
2018-04-27T15:43:27.756Z,4.25
2018-04-27T15:46:03.238Z,3.00
2018-04-27T15:48:36.644Z,3.50
2018-04-27T15:51:09.222Z,3.25
2018-04-27T15:53:40.482Z,3.50
2018-04-27T15:56:12.328Z,3.00
2018-04-27T15:58:51.558Z,3.50
2018-04-27T16:01:25.845Z,3.25
2018-04-27T16:03:58.243Z,3.00
2018-04-27T16:06:34.548Z,4.00
2018-04-27T16:09:17.790Z,4.00
2018-04-27T16:11:57.540Z,3.50
2018-04-27T16:14:29.212Z,3.00
2018-04-27T16:17:00.269Z,4.00
2018-04-27T16:19:31.111Z,3.75
2018-04-27T16:22:02.713Z,4.00
2018-04-27T16:24:33.767Z,3.75
2018-04-27T16:27:07.157Z,4.00
2018-04-27T16:29:40.438Z,4.00
2018-04-27T16:32:11.483Z,3.75
2018-04-27T16:34:43.449Z,4.00
2018-04-27T16:37:14.792Z,5.00
2018-04-27T16:39:45.239Z,4.00
2018-04-27T16:42:15.861Z,4.25
2018-04-27T16:44:47.466Z,5.00
2018-04-27T16:47:18.299Z,5.00
2018-04-27T16:49:48.958Z,5.25
2018-04-27T16:52:19.319Z,5.25
2018-04-27T16:57:30.651Z,5.00
2018-04-27T17:00:01.246Z,5.75
2018-04-27T17:02:37.202Z,5.00
2018-04-27T17:05:09.085Z,5.00
2018-04-27T17:14:20.107Z,6.00
2018-04-27T17:17:18.397Z,5.00
2018-04-27T17:19:52.038Z,5.25
2018-04-27T17:22:22.337Z,6.00
2018-04-27T17:24:53.593Z,8.00
2018-04-27T17:30:21.885Z,6.00
2018-04-27T17:32:53.492Z,8.75
2018-04-27T17:35:25.294Z,7.00
2018-04-27T17:37:55.384Z,6.25
2018-04-27T17:40:25.869Z,5.00
2018-04-27T17:43:19.447Z,5.75
2018-04-27T17:45:49.788Z,4.50
2018-04-27T17:48:20.049Z,6.00
2018-04-27T17:50:51.549Z,5.75
2018-04-27T17:53:22.652Z,5.00
2018-04-27T17:55:53.583Z,4.50
2018-04-27T17:58:23.827Z,5.25
2018-04-27T18:00:55.052Z,6.50
2018-04-27T18:03:26.018Z,4.50
2018-04-27T18:05:56.803Z,5.00
2018-04-27T18:08:27.275Z,5.50
2018-04-27T18:11:00.699Z,5.00
2018-04-27T18:13:31.017Z,5.00
2018-04-27T18:16:01.588Z,4.00
2018-04-27T18:18:36.130Z,4.00
2018-04-27T18:21:07.604Z,5.00
2018-04-27T18:23:38.103Z,5.00
2018-04-27T18:26:09.857Z,5.00
2018-04-27T18:28:40.394Z,4.75
2018-04-27T18:31:10.946Z,4.00
2018-04-27T18:33:41.468Z,4.00
2018-04-27T18:36:12.715Z,4.25
2018-04-27T18:38:43.479Z,4.75
2018-04-27T18:41:14.290Z,4.75
2018-04-27T18:43:45.542Z,3.75
2018-04-27T18:46:16.731Z,4.25
2018-04-27T18:48:47.843Z,5.00
2018-04-27T18:51:20.180Z,4.00
2018-04-27T18:53:54.513Z,4.25
2018-04-27T18:56:25.413Z,5.50
2018-04-27T18:58:56.655Z,6.00
2018-04-27T19:01:27.474Z,4.00
2018-04-27T19:03:59.209Z,5.50
2018-04-27T19:06:29.511Z,5.25
2018-04-27T19:09:01.299Z,5.00
2018-04-27T19:11:32.143Z,5.00
2018-04-27T19:14:04.217Z,5.00
2018-04-27T19:16:35.774Z,5.00
2018-04-27T19:19:06.156Z,5.00
2018-04-27T19:21:36.731Z,5.00
2018-04-27T19:24:07.157Z,6.00
2018-04-27T19:26:37.704Z,5.00
2018-04-27T19:29:15.562Z,5.50
2018-04-27T19:31:46.943Z,5.25
2018-04-27T19:34:22.965Z,4.00
2018-04-27T19:37:09.009Z,6.00
2018-04-27T19:39:39.886Z,6.75
2018-04-27T19:42:10.551Z,6.00
2018-04-27T19:44:41.329Z,6.75
2018-04-27T19:47:14.271Z,5.50
2018-04-27T19:49:44.494Z,5.75
2018-04-27T19:52:15.812Z,5.50
2018-04-27T19:54:48.343Z,6.00
2018-04-27T19:57:22.177Z,6.00
2018-04-27T19:59:57.429Z,6.25
2018-04-27T20:02:28.712Z,6.25
2018-04-27T20:05:05.520Z,6.00
2018-04-27T20:07:36.558Z,5.75
2018-04-27T20:10:13.950Z,6.00
2018-04-27T20:12:45.301Z,8.75
2018-04-27T20:15:19.002Z,7.75
2018-04-27T20:17:51.718Z,7.25
2018-04-27T20:20:31.362Z,5.75
2018-04-27T20:23:05.900Z,6.00
2018-04-27T20:25:38.834Z,6.50
2018-04-27T20:28:09.739Z,7.00
2018-04-27T20:30:40.519Z,8.75
2018-04-27T20:33:17.652Z,7.00
2018-04-27T20:35:48.360Z,10.25
2018-04-27T20:38:22.622Z,10.75
2018-04-27T20:40:58.564Z,11.00
2018-04-27T20:43:44.964Z,6.50
2018-04-27T20:46:17.258Z,7.75
2018-04-27T20:48:47.803Z,6.00
2018-04-27T20:51:18.848Z,7.75
2018-04-27T20:53:52.184Z,7.75
2018-04-27T20:56:24.848Z,8.75
2018-04-27T20:58:56.968Z,6.50
2018-04-27T21:01:28.136Z,7.00
2018-04-27T21:03:59.185Z,6.00
2018-04-27T21:06:30.504Z,7.75
2018-04-27T21:09:03.801Z,6.00
2018-04-27T21:11:35.240Z,8.50
2018-04-27T21:14:06.578Z,7.75
2018-04-27T21:16:37.022Z,7.25
2018-04-27T21:19:08.276Z,7.75
2018-04-27T21:21:39.668Z,5.50
2018-04-27T21:24:10.687Z,10.00
2018-04-27T21:26:42.439Z,10.00
2018-04-27T21:29:16.066Z,8.00
2018-04-27T21:31:48.700Z,9.50
2018-04-27T21:34:19.318Z,12.50
2018-04-27T21:36:50.330Z,9.00
2018-04-27T21:39:24.603Z,9.25
2018-04-27T21:42:03.860Z,7.00
2018-04-27T21:44:34.612Z,8.50
2018-04-27T21:47:06.197Z,8.00
2018-04-27T21:49:36.958Z,7.50
2018-04-27T21:52:08.324Z,6.75
2018-04-27T21:54:41.748Z,7.75
2018-04-27T21:57:19.378Z,9.00
2018-04-27T21:59:49.785Z,8.75
2018-04-27T22:02:26.334Z,8.00
2018-04-27T22:05:03.969Z,10.50
2018-04-27T22:07:38.122Z,11.00
2018-04-27T22:10:10.234Z,9.75
2018-04-27T22:12:41.354Z,8.00
2018-04-27T22:15:14.855Z,8.00
2018-04-27T22:17:47.603Z,8.50
2018-04-27T22:20:18.382Z,7.50
2018-04-27T22:22:51.852Z,8.00
2018-04-27T22:25:23.109Z,7.00
2018-04-27T22:27:54.081Z,7.00
2018-04-27T22:30:24.595Z,7.75
2018-04-27T22:32:55.400Z,8.50
2018-04-27T22:35:38.819Z,7.50
2018-04-27T22:38:12.977Z,7.00
2018-04-27T22:40:46.044Z,8.00
2018-04-27T22:43:17.258Z,7.00
2018-04-27T22:48:32.856Z,7.00
2018-04-27T22:51:03.953Z,7.00
2018-04-27T22:53:34.955Z,6.50
2018-04-27T22:56:10.491Z,7.00
2018-04-27T22:58:42.146Z,6.50
2018-04-27T23:03:51.964Z,7.00
2018-04-27T23:06:39.262Z,7.00
2018-04-27T23:09:17.198Z,7.25
2018-04-27T23:11:49.195Z,7.00
2018-04-27T23:14:22.995Z,7.00
2018-04-27T23:16:54.486Z,7.00
2018-04-27T23:19:25.402Z,4.25
2018-04-27T23:21:57.700Z,5.75
2018-04-27T23:24:27.997Z,4.00
2018-04-27T23:27:03.649Z,5.75
2018-04-27T23:29:33.894Z,4.75
2018-04-27T23:32:04.767Z,4.00
2018-04-27T23:34:35.046Z,5.75
2018-04-27T23:37:07.907Z,5.50
2018-04-27T23:39:39.955Z,4.75
2018-04-27T23:42:11.070Z,4.00
2018-04-27T23:44:41.628Z,4.00
2018-04-27T23:47:13.248Z,5.75
2018-04-27T23:49:45.004Z,5.75
2018-04-27T23:52:15.680Z,4.00
2018-04-27T23:54:45.896Z,7.00
2018-04-27T23:57:16.499Z,4.00
2018-04-27T23:59:47.264Z,6.00
